createdAt,value
2023-05-02T00:00:46.646Z,3.60
2023-05-02T00:01:46.688Z,3.60
2023-05-02T00:02:46.634Z,3.70
2023-05-02T00:03:46.651Z,4.00
2023-05-02T00:04:46.517Z,3.70
2023-05-02T00:05:46.481Z,3.70
2023-05-02T00:06:46.726Z,4.10
2023-05-02T00:07:46.442Z,4.00
2023-05-02T00:08:46.410Z,3.90
2023-05-02T00:09:46.376Z,3.80
2023-05-02T00:10:46.371Z,3.90
2023-05-02T00:11:46.335Z,4.20
2023-05-02T00:12:46.298Z,3.70
2023-05-02T00:13:46.269Z,3.60
2023-05-02T00:14:46.248Z,4.50
2023-05-02T00:15:46.216Z,4.10
2023-05-02T00:16:46.213Z,4.20
2023-05-02T00:17:46.171Z,4.20
2023-05-02T00:18:46.138Z,4.60
2023-05-02T00:19:46.115Z,4.40
2023-05-02T00:20:46.089Z,4.20
2023-05-02T00:21:46.055Z,4.20
2023-05-02T00:22:46.028Z,4.20
2023-05-02T00:23:45.998Z,4.40
2023-05-02T00:24:45.973Z,4.40
2023-05-02T00:25:45.962Z,4.50
2023-05-02T00:26:45.938Z,4.10
2023-05-02T00:27:45.891Z,4.40
2023-05-02T00:28:45.867Z,4.40
2023-05-02T00:29:45.839Z,4.50
2023-05-02T00:30:45.867Z,4.80
2023-05-02T00:31:45.780Z,4.90
2023-05-02T00:32:45.911Z,4.30
2023-05-02T00:33:45.733Z,4.60
2023-05-02T00:34:45.702Z,4.40
2023-05-02T00:35:45.702Z,4.80
2023-05-02T00:36:45.648Z,4.60
2023-05-02T00:37:45.629Z,4.60
2023-05-02T00:38:45.595Z,4.80
2023-05-02T00:39:45.567Z,4.90
2023-05-02T00:40:45.547Z,4.70
2023-05-02T00:41:45.512Z,4.90
2023-05-02T00:42:45.506Z,4.90
2023-05-02T00:43:45.458Z,4.90
2023-05-02T00:44:45.429Z,4.70
2023-05-02T00:45:45.404Z,5.10
2023-05-02T00:46:45.431Z,5.00
2023-05-02T00:47:45.387Z,4.40
2023-05-02T00:48:45.323Z,4.70
2023-05-02T00:49:45.294Z,4.70
2023-05-02T00:50:45.268Z,4.50
2023-05-02T00:51:45.239Z,4.60
2023-05-02T00:52:45.230Z,4.30
2023-05-02T00:53:45.202Z,4.20
2023-05-02T00:54:45.158Z,4.30
2023-05-02T00:55:45.152Z,4.60
2023-05-02T00:56:45.109Z,4.20
2023-05-02T00:57:45.077Z,4.30
2023-05-02T00:58:45.082Z,4.40
2023-05-02T00:59:45.024Z,4.60
2023-05-02T01:00:44.998Z,4.50
2023-05-02T01:01:45.080Z,4.30
2023-05-02T01:02:45.055Z,4.30
2023-05-02T01:03:45.043Z,4.80
2023-05-02T01:04:44.900Z,4.30
2023-05-02T01:05:44.859Z,3.90
2023-05-02T01:06:44.977Z,4.00
2023-05-02T01:07:44.817Z,4.20
2023-05-02T01:08:44.786Z,4.30
2023-05-02T01:09:44.748Z,4.30
2023-05-02T01:10:44.721Z,4.20
2023-05-02T01:11:44.694Z,4.30
2023-05-02T01:12:44.679Z,4.10
2023-05-02T01:13:44.645Z,4.30
2023-05-02T01:14:44.637Z,4.20
2023-05-02T01:15:44.627Z,4.30
2023-05-02T01:16:44.728Z,4.20
2023-05-02T01:17:44.564Z,4.20
2023-05-02T01:18:44.510Z,4.20
2023-05-02T01:19:44.473Z,4.00
2023-05-02T01:20:44.454Z,4.50
2023-05-02T01:21:44.421Z,4.20
2023-05-02T01:22:44.397Z,4.30
2023-05-02T01:23:44.378Z,4.10
2023-05-02T01:24:44.341Z,4.40
2023-05-02T01:25:44.313Z,4.20
2023-05-02T01:26:44.286Z,3.90
2023-05-02T01:27:44.256Z,3.70
2023-05-02T01:28:44.230Z,4.20
2023-05-02T01:29:44.205Z,4.30
2023-05-02T01:30:44.238Z,4.20
2023-05-02T01:31:44.201Z,4.30
2023-05-02T01:32:44.161Z,4.40
2023-05-02T01:33:44.096Z,4.20
2023-05-02T01:34:44.068Z,4.00
2023-05-02T01:35:44.048Z,4.30
2023-05-02T01:36:44.032Z,4.30
2023-05-02T01:37:43.987Z,4.30
2023-05-02T01:38:43.959Z,4.30
2023-05-02T01:39:43.932Z,3.80
2023-05-02T01:40:43.905Z,4.20
2023-05-02T01:41:43.879Z,4.40
2023-05-02T01:42:43.855Z,4.20
2023-05-02T01:43:43.822Z,4.20
2023-05-02T01:44:43.812Z,4.50
2023-05-02T01:45:43.765Z,4.20
2023-05-02T01:46:43.796Z,4.20
2023-05-02T01:47:43.802Z,4.30
2023-05-02T01:48:43.688Z,4.30
2023-05-02T01:49:43.663Z,3.90
2023-05-02T01:50:43.634Z,4.30
2023-05-02T01:51:43.605Z,4.60
2023-05-02T01:52:43.587Z,4.40
2023-05-02T01:53:43.551Z,4.50
2023-05-02T01:54:43.524Z,4.30
2023-05-02T01:55:43.498Z,4.60
2023-05-02T01:56:43.483Z,4.80
2023-05-02T01:57:43.441Z,4.50
2023-05-02T01:58:43.414Z,4.70
2023-05-02T01:59:43.392Z,4.60
2023-05-02T02:00:43.412Z,4.70
2023-05-02T02:01:43.556Z,4.60
2023-05-02T02:02:43.326Z,4.40
2023-05-02T02:03:43.295Z,4.30
2023-05-02T02:04:43.308Z,4.40
2023-05-02T02:05:43.224Z,4.70
2023-05-02T02:06:43.258Z,4.70
2023-05-02T02:07:43.212Z,4.40
2023-05-02T02:08:43.155Z,4.90
2023-05-02T02:09:43.117Z,4.20
2023-05-02T02:10:43.091Z,4.40
2023-05-02T02:11:43.059Z,4.80
2023-05-02T02:12:43.037Z,4.60
2023-05-02T02:13:43.000Z,4.60
2023-05-02T02:14:42.985Z,5.40
2023-05-02T02:15:42.948Z,5.30
2023-05-02T02:16:42.953Z,4.80
2023-05-02T02:17:42.924Z,4.70
2023-05-02T02:18:42.892Z,5.40
2023-05-02T02:19:42.843Z,4.40
2023-05-02T02:20:42.812Z,4.70
2023-05-02T02:21:42.788Z,4.50
2023-05-02T02:22:42.821Z,4.60
2023-05-02T02:23:42.729Z,4.60
2023-05-02T02:24:42.702Z,4.10
2023-05-02T02:25:42.672Z,4.20
2023-05-02T02:26:42.655Z,4.30
2023-05-02T02:27:42.621Z,4.60
2023-05-02T02:28:42.592Z,4.30
2023-05-02T02:29:42.564Z,4.70
2023-05-02T02:30:42.570Z,4.70
2023-05-02T02:31:42.509Z,4.60
2023-05-02T02:32:42.551Z,4.20
2023-05-02T02:33:42.455Z,4.00
2023-05-02T02:34:42.451Z,3.90
2023-05-02T02:35:42.405Z,4.60
2023-05-02T02:36:42.381Z,4.80
2023-05-02T02:37:42.350Z,4.70
2023-05-02T02:38:42.321Z,4.50
2023-05-02T02:39:42.285Z,4.80
2023-05-02T02:40:42.270Z,4.20
2023-05-02T02:41:42.234Z,4.80
2023-05-02T02:42:42.216Z,4.50
2023-05-02T02:43:42.178Z,4.40
2023-05-02T02:44:42.156Z,3.90
2023-05-02T02:45:42.122Z,4.60
2023-05-02T02:46:42.132Z,4.20
2023-05-02T02:47:42.114Z,4.40
2023-05-02T02:48:42.042Z,4.10
2023-05-02T02:49:42.018Z,4.10
2023-05-02T02:50:42.006Z,4.00
2023-05-02T02:51:41.956Z,4.20
2023-05-02T02:52:41.929Z,3.90
2023-05-02T02:53:41.908Z,4.20
2023-05-02T02:54:41.881Z,3.90
2023-05-02T02:55:41.845Z,4.10
2023-05-02T02:56:41.824Z,4.20
2023-05-02T02:57:41.794Z,4.10
2023-05-02T02:58:41.767Z,4.20
2023-05-02T02:59:41.746Z,4.60
2023-05-02T03:00:41.713Z,3.90
2023-05-02T03:01:41.725Z,4.00
2023-05-02T03:02:41.677Z,3.70
2023-05-02T03:03:41.680Z,3.90
2023-05-02T03:04:41.606Z,3.90
2023-05-02T03:05:41.572Z,4.10
2023-05-02T03:06:41.580Z,4.00
2023-05-02T03:07:41.536Z,4.00
2023-05-02T03:08:41.502Z,4.10
2023-05-02T03:09:41.474Z,4.10
2023-05-02T03:10:41.434Z,3.80
2023-05-02T03:11:41.409Z,3.90
2023-05-02T03:12:41.391Z,4.10
2023-05-02T03:13:41.356Z,4.10
2023-05-02T03:14:41.325Z,3.70
2023-05-02T03:15:41.346Z,3.60
2023-05-02T03:16:41.362Z,4.00
2023-05-02T03:17:41.269Z,3.70
2023-05-02T03:18:41.218Z,4.00
2023-05-02T03:19:41.236Z,3.90
2023-05-02T03:20:41.158Z,3.50
2023-05-02T03:21:41.135Z,3.20
2023-05-02T03:22:41.122Z,3.30
2023-05-02T03:23:41.089Z,3.30
2023-05-02T03:24:41.056Z,3.40
2023-05-02T03:25:41.021Z,3.20
2023-05-02T03:26:40.999Z,3.40
2023-05-02T03:27:40.970Z,3.20
2023-05-02T03:28:40.945Z,3.40
2023-05-02T03:29:40.912Z,3.30
2023-05-02T03:30:40.925Z,3.30
2023-05-02T03:31:40.910Z,3.20
2023-05-02T03:32:40.856Z,3.40
2023-05-02T03:33:40.805Z,3.40
2023-05-02T03:34:40.780Z,3.50
2023-05-02T03:35:40.746Z,3.40
2023-05-02T03:36:40.725Z,3.20
2023-05-02T03:37:40.692Z,3.40
2023-05-02T03:38:40.687Z,3.30
2023-05-02T03:39:40.642Z,3.30
2023-05-02T03:40:40.609Z,3.40
2023-05-02T03:41:40.583Z,3.00
2023-05-02T03:42:40.552Z,3.20
2023-05-02T03:43:40.527Z,3.30
2023-05-02T03:44:40.501Z,3.70
2023-05-02T03:45:40.477Z,3.70
2023-05-02T03:46:40.488Z,3.50
2023-05-02T03:47:40.480Z,3.50
2023-05-02T03:48:40.396Z,3.40
2023-05-02T03:49:40.382Z,3.60
2023-05-02T03:50:40.346Z,3.70
2023-05-02T03:51:40.314Z,3.70
2023-05-02T03:52:40.281Z,3.50
2023-05-02T03:53:40.252Z,3.60
2023-05-02T03:54:40.247Z,4.20
2023-05-02T03:55:40.205Z,3.70
2023-05-02T03:56:42.637Z,3.60
2023-05-02T03:57:40.159Z,3.40
2023-05-02T03:58:40.115Z,3.30
2023-05-02T03:59:40.095Z,3.60
2023-05-02T04:00:40.066Z,3.80
2023-05-02T04:01:40.077Z,3.60
2023-05-02T04:02:40.275Z,3.50
2023-05-02T04:03:40.063Z,3.70
2023-05-02T04:04:40.009Z,3.80
2023-05-02T04:05:39.925Z,3.50
2023-05-02T04:06:39.922Z,3.40
2023-05-02T04:07:39.872Z,3.90
2023-05-02T04:08:39.846Z,4.10
2023-05-02T04:09:39.817Z,3.60
2023-05-02T04:10:39.806Z,3.50
2023-05-02T04:11:39.766Z,3.30
2023-05-02T04:12:39.732Z,3.30
2023-05-02T04:13:39.703Z,3.50
2023-05-02T04:14:39.677Z,3.50
2023-05-02T04:15:39.650Z,3.60
2023-05-02T04:16:39.633Z,3.40
2023-05-02T04:17:39.647Z,3.50
2023-05-02T04:18:39.579Z,3.60
2023-05-02T04:19:39.541Z,3.60
2023-05-02T04:20:39.511Z,3.90
2023-05-02T04:21:39.487Z,4.10
2023-05-02T04:22:39.458Z,3.90
2023-05-02T04:23:39.428Z,4.10
2023-05-02T04:24:39.402Z,3.60
2023-05-02T04:25:39.384Z,3.80
2023-05-02T04:26:39.376Z,3.70
2023-05-02T04:27:39.324Z,3.80
2023-05-02T04:28:39.294Z,4.10
2023-05-02T04:29:39.272Z,4.00
2023-05-02T04:30:39.290Z,4.10
2023-05-02T04:31:39.214Z,4.10
2023-05-02T04:32:39.206Z,4.10
2023-05-02T04:33:39.154Z,4.00
2023-05-02T04:34:39.123Z,3.90
2023-05-02T04:35:39.098Z,4.10
2023-05-02T04:36:39.072Z,4.20
2023-05-02T04:37:39.061Z,4.00
2023-05-02T04:38:39.017Z,3.80
2023-05-02T04:39:38.990Z,4.50
2023-05-02T04:40:38.984Z,3.80
2023-05-02T04:41:38.935Z,4.40
2023-05-02T04:42:38.931Z,4.20
2023-05-02T04:43:38.883Z,4.10
2023-05-02T04:44:38.852Z,4.20
2023-05-02T04:45:38.826Z,4.20
2023-05-02T04:46:38.823Z,4.40
2023-05-02T04:47:38.804Z,4.30
2023-05-02T04:48:38.741Z,3.90
2023-05-02T04:49:38.711Z,4.50
2023-05-02T04:50:38.699Z,4.40
2023-05-02T04:51:38.664Z,4.70
2023-05-02T04:52:38.637Z,4.20
2023-05-02T04:53:38.656Z,4.40
2023-05-02T04:54:38.575Z,4.50
2023-05-02T04:55:38.577Z,4.50
2023-05-02T04:56:38.551Z,4.20
2023-05-02T04:57:38.494Z,4.60
2023-05-02T04:58:38.531Z,4.30
2023-05-02T04:59:38.444Z,4.70
2023-05-02T05:00:38.414Z,4.40
2023-05-02T05:01:38.414Z,4.20
2023-05-02T05:02:38.467Z,4.50
2023-05-02T05:03:38.463Z,4.70
2023-05-02T05:04:38.306Z,4.40
2023-05-02T05:05:38.340Z,4.70
2023-05-02T05:06:38.325Z,4.70
2023-05-02T05:07:38.230Z,4.70
2023-05-02T05:08:38.196Z,4.70
2023-05-02T05:09:38.179Z,4.60
2023-05-02T05:10:38.142Z,4.50
2023-05-02T05:11:38.115Z,4.80
2023-05-02T05:12:38.093Z,4.50
2023-05-02T05:13:38.068Z,4.90
2023-05-02T05:14:38.052Z,4.40
2023-05-02T05:15:38.019Z,4.40
2023-05-02T05:16:38.025Z,4.80
2023-05-02T05:17:37.994Z,4.50
2023-05-02T05:18:37.924Z,4.20
2023-05-02T05:19:37.898Z,4.50
2023-05-02T05:20:37.870Z,4.50
2023-05-02T05:21:37.845Z,4.10
2023-05-02T05:22:37.821Z,3.90
2023-05-02T05:23:37.798Z,4.00
2023-05-02T05:24:37.759Z,4.20
2023-05-02T05:25:37.742Z,4.10
2023-05-02T05:26:37.720Z,4.50
2023-05-02T05:27:37.702Z,4.00
2023-05-02T05:28:37.652Z,3.80
2023-05-02T05:29:37.632Z,4.10
2023-05-02T05:30:37.662Z,4.10
2023-05-02T05:31:37.727Z,4.10
2023-05-02T05:32:37.635Z,4.10
2023-05-02T05:33:37.535Z,4.10
2023-05-02T05:34:37.516Z,3.90
2023-05-02T05:35:37.473Z,3.90
2023-05-02T05:36:37.437Z,4.10
2023-05-02T05:37:37.408Z,4.40
2023-05-02T05:38:37.385Z,4.50
2023-05-02T05:39:37.357Z,4.30
2023-05-02T05:40:37.328Z,3.60
2023-05-02T05:41:37.301Z,3.60
2023-05-02T05:42:37.281Z,3.70
2023-05-02T05:43:38.322Z,3.80
2023-05-02T05:44:37.220Z,4.00
2023-05-02T05:45:37.196Z,3.70
2023-05-02T05:46:37.193Z,4.40
2023-05-02T05:47:37.389Z,4.00
2023-05-02T05:48:37.128Z,4.20
2023-05-02T05:49:38.648Z,3.70
2023-05-02T05:50:37.055Z,3.90
2023-05-02T05:51:37.046Z,3.80
2023-05-02T05:52:37.006Z,3.70
2023-05-02T05:53:36.977Z,3.90
2023-05-02T05:54:36.961Z,3.30
2023-05-02T05:55:37.486Z,3.50
2023-05-02T05:56:36.899Z,3.50
2023-05-02T05:57:36.871Z,3.20
2023-05-02T05:58:36.843Z,3.50
2023-05-02T05:59:36.824Z,3.40
2023-05-02T06:00:36.792Z,3.50
2023-05-02T06:01:36.764Z,3.40
2023-05-02T06:02:36.826Z,3.50
2023-05-02T06:03:36.825Z,3.60
2023-05-02T06:04:36.724Z,3.30
2023-05-02T06:05:36.657Z,3.50
2023-05-02T06:06:36.707Z,3.50
2023-05-02T06:07:36.605Z,4.00
2023-05-02T06:08:36.606Z,3.30
2023-05-02T06:09:36.555Z,3.50
2023-05-02T06:10:36.521Z,3.80
2023-05-02T06:11:36.495Z,3.90
2023-05-02T06:12:36.469Z,3.50
2023-05-02T06:13:36.443Z,3.50
2023-05-02T06:14:36.424Z,3.40
2023-05-02T06:15:36.397Z,3.50
2023-05-02T06:16:36.364Z,3.20
2023-05-02T06:17:36.369Z,3.50
2023-05-02T06:18:36.330Z,3.60
2023-05-02T06:19:36.291Z,4.00
2023-05-02T06:20:36.262Z,3.50
2023-05-02T06:21:36.232Z,3.80
2023-05-02T06:22:36.204Z,3.40
2023-05-02T06:23:36.829Z,3.20
2023-05-02T06:24:36.156Z,3.30
2023-05-02T06:25:36.122Z,3.60
2023-05-02T06:26:36.097Z,3.20
2023-05-02T06:27:36.089Z,3.40
2023-05-02T06:28:36.043Z,3.40
2023-05-02T06:29:36.019Z,3.40
2023-05-02T06:30:35.986Z,3.20
2023-05-02T06:31:35.996Z,3.20
2023-05-02T06:32:35.967Z,3.40
2023-05-02T06:33:35.912Z,3.60
2023-05-02T06:34:35.903Z,3.90
2023-05-02T06:35:35.863Z,3.80
2023-05-02T06:36:35.839Z,3.90
2023-05-02T06:37:35.807Z,3.70
2023-05-02T06:38:35.781Z,3.60
2023-05-02T06:39:35.769Z,3.80
2023-05-02T06:40:35.724Z,3.40
2023-05-02T06:41:35.696Z,3.40
2023-05-02T06:42:35.670Z,3.90
2023-05-02T06:43:35.646Z,3.90
2023-05-02T06:44:35.620Z,3.50
2023-05-02T06:45:35.601Z,3.70
2023-05-02T06:46:35.612Z,3.30
2023-05-02T06:47:35.590Z,3.60
2023-05-02T06:48:35.525Z,3.50
2023-05-02T06:49:35.488Z,3.80
2023-05-02T06:50:35.539Z,3.60
2023-05-02T06:51:35.437Z,3.50
2023-05-02T06:52:35.406Z,3.50
2023-05-02T06:53:35.389Z,3.50
2023-05-02T06:54:35.368Z,4.00
2023-05-02T06:55:35.329Z,3.70
2023-05-02T06:56:35.305Z,3.60
2023-05-02T06:57:35.275Z,3.60
2023-05-02T06:58:35.252Z,3.70
2023-05-02T06:59:35.238Z,3.50
2023-05-02T07:00:35.248Z,3.80
2023-05-02T07:01:35.250Z,3.90
2023-05-02T07:02:35.225Z,4.30
2023-05-02T07:03:35.122Z,3.70
2023-05-02T07:04:35.155Z,4.10
2023-05-02T07:05:35.072Z,3.90
2023-05-02T07:06:35.148Z,4.30
2023-05-02T07:07:35.027Z,4.00
2023-05-02T07:08:34.995Z,4.50
2023-05-02T07:09:34.966Z,4.20
2023-05-02T07:10:34.947Z,4.00
2023-05-02T07:11:34.917Z,4.10
2023-05-02T07:12:34.899Z,4.30
2023-05-02T07:13:34.870Z,5.10
2023-05-02T07:14:34.847Z,5.30
2023-05-02T07:15:34.817Z,4.60
2023-05-02T07:16:34.797Z,4.70
2023-05-02T07:17:34.804Z,3.90
2023-05-02T07:18:34.735Z,4.30
2023-05-02T07:19:34.709Z,4.30
2023-05-02T07:20:34.685Z,4.20
2023-05-02T07:21:34.665Z,4.20
2023-05-02T07:22:34.653Z,4.10
2023-05-02T07:23:34.609Z,4.30
2023-05-02T07:24:34.584Z,4.40
2023-05-02T07:25:34.566Z,4.40
2023-05-02T07:26:34.533Z,4.60
2023-05-02T07:27:34.507Z,4.10
2023-05-02T07:28:34.483Z,4.60
2023-05-02T07:29:34.461Z,4.40
2023-05-02T07:30:34.432Z,4.60
2023-05-02T07:31:34.478Z,4.50
2023-05-02T07:32:34.523Z,4.80
2023-05-02T07:33:34.355Z,4.90
2023-05-02T07:34:34.330Z,4.70
2023-05-02T07:35:34.307Z,4.70
2023-05-02T07:36:34.285Z,4.80
2023-05-02T07:37:34.608Z,4.70
2023-05-02T07:38:34.265Z,4.70
2023-05-02T07:39:34.218Z,4.70
2023-05-02T07:40:34.188Z,5.20
2023-05-02T07:41:34.190Z,4.70
2023-05-02T07:42:34.146Z,4.90
2023-05-02T07:43:34.147Z,5.20
2023-05-02T07:44:34.087Z,5.10
2023-05-02T07:45:34.058Z,5.30
2023-05-02T07:46:34.173Z,4.90
2023-05-02T07:47:34.041Z,4.50
2023-05-02T07:48:34.008Z,5.10
2023-05-02T07:49:33.966Z,5.10
2023-05-02T07:50:33.941Z,4.80
2023-05-02T07:51:33.913Z,5.10
2023-05-02T07:52:33.902Z,5.20
2023-05-02T07:53:33.865Z,5.00
2023-05-02T07:54:33.870Z,5.30
2023-05-02T07:55:33.815Z,5.30
2023-05-02T07:56:33.798Z,5.50
2023-05-02T07:57:33.769Z,5.20
2023-05-02T07:58:33.748Z,5.60
2023-05-02T07:59:33.721Z,5.20
2023-05-02T08:00:33.693Z,5.20
2023-05-02T08:01:33.669Z,5.40
2023-05-02T08:02:33.726Z,6.70
2023-05-02T08:03:33.778Z,5.90
2023-05-02T08:04:33.645Z,5.50
2023-05-02T08:05:33.569Z,5.60
2023-05-02T08:06:33.601Z,5.00
2023-05-02T08:07:33.520Z,5.90
2023-05-02T08:08:33.496Z,5.30
2023-05-02T08:09:33.471Z,6.00
2023-05-02T08:10:33.476Z,5.50
2023-05-02T08:11:33.423Z,5.30
2023-05-02T08:12:33.396Z,5.50
2023-05-02T08:13:33.367Z,5.00
2023-05-02T08:14:33.345Z,5.20
2023-05-02T08:15:33.319Z,5.70
2023-05-02T08:16:33.555Z,5.10
2023-05-02T08:17:33.289Z,5.30
2023-05-02T08:18:33.248Z,5.90
2023-05-02T08:19:33.223Z,6.10
2023-05-02T08:20:33.200Z,6.00
2023-05-02T08:21:33.179Z,5.60
2023-05-02T08:22:33.145Z,5.00
2023-05-02T08:23:33.119Z,5.50
2023-05-02T08:24:33.108Z,5.40
2023-05-02T08:25:33.069Z,5.10
2023-05-02T08:26:33.063Z,5.40
2023-05-02T08:27:33.018Z,5.30
2023-05-02T08:28:32.995Z,5.60
2023-05-02T08:29:32.969Z,5.70
2023-05-02T08:30:32.949Z,5.30
2023-05-02T08:31:32.978Z,5.80
2023-05-02T08:32:32.970Z,5.50
2023-05-02T08:33:32.867Z,5.90
2023-05-02T08:34:32.859Z,5.90
2023-05-02T08:35:32.827Z,6.10
2023-05-02T08:36:32.796Z,5.50
2023-05-02T08:37:32.770Z,5.40
2023-05-02T08:38:32.744Z,5.80
2023-05-02T08:39:32.715Z,5.60
2023-05-02T08:40:40.884Z,6.20
2023-05-02T08:41:32.673Z,5.80
2023-05-02T08:42:32.666Z,5.70
2023-05-02T08:43:32.620Z,6.00
2023-05-02T08:44:32.601Z,5.50
2023-05-02T08:45:32.567Z,5.10
2023-05-02T08:46:32.602Z,5.50
2023-05-02T08:47:32.565Z,5.50
2023-05-02T08:48:32.494Z,6.10
2023-05-02T08:49:32.474Z,6.10
2023-05-02T08:50:32.444Z,5.70
2023-05-02T08:51:32.424Z,5.60
2023-05-02T08:52:32.393Z,5.50
2023-05-02T08:53:32.369Z,5.90
2023-05-02T08:54:32.346Z,5.20
2023-05-02T08:55:32.321Z,5.70
2023-05-02T08:56:32.302Z,5.50
2023-05-02T08:57:32.272Z,5.40
2023-05-02T08:58:32.365Z,5.80
2023-05-02T08:59:32.225Z,5.70
2023-05-02T09:00:32.204Z,5.60
2023-05-02T09:01:32.212Z,5.80
2023-05-02T09:02:32.198Z,6.00
2023-05-02T09:03:32.128Z,5.60
2023-05-02T09:04:32.133Z,5.20
2023-05-02T09:05:32.082Z,5.40
2023-05-02T09:06:32.086Z,5.50
2023-05-02T09:07:32.043Z,4.90
2023-05-02T09:08:32.019Z,5.90
2023-05-02T09:09:31.986Z,5.60
2023-05-02T09:10:31.968Z,5.40
2023-05-02T09:11:31.937Z,5.00
2023-05-02T09:12:31.916Z,5.70
2023-05-02T09:13:32.011Z,4.70
2023-05-02T09:14:31.885Z,5.20
2023-05-02T09:15:31.844Z,5.30
2023-05-02T09:16:31.886Z,5.60
2023-05-02T09:17:31.799Z,5.70
2023-05-02T09:18:31.821Z,5.00
2023-05-02T09:19:31.761Z,5.30
2023-05-02T09:20:31.731Z,5.40
2023-05-02T09:21:31.703Z,5.30
2023-05-02T09:22:31.686Z,5.80
2023-05-02T09:23:31.665Z,5.50
2023-05-02T09:24:31.644Z,5.70
2023-05-02T09:25:31.610Z,5.50
2023-05-02T09:26:31.936Z,5.40
2023-05-02T09:27:31.559Z,5.90
2023-05-02T09:28:31.541Z,5.30
2023-05-02T09:29:31.523Z,5.50
2023-05-02T09:30:31.518Z,5.20
2023-05-02T09:31:54.328Z,5.00
2023-05-02T09:32:31.495Z,5.10
2023-05-02T09:33:31.421Z,5.20
2023-05-02T09:34:31.415Z,5.20
2023-05-02T09:35:31.378Z,5.50
2023-05-02T09:36:31.355Z,5.20
2023-05-02T09:37:31.329Z,5.00
2023-05-02T09:38:31.424Z,5.00
2023-05-02T09:39:31.293Z,5.00
2023-05-02T09:40:31.261Z,5.20
2023-05-02T09:41:31.244Z,4.80
2023-05-02T09:42:31.229Z,5.70
2023-05-02T09:43:31.197Z,5.60
2023-05-02T09:44:32.318Z,5.00
2023-05-02T09:45:31.144Z,5.00
2023-05-02T09:46:31.205Z,4.80
2023-05-02T09:47:31.151Z,5.10
2023-05-02T09:48:31.077Z,5.70
2023-05-02T09:49:31.058Z,5.80
2023-05-02T09:50:32.349Z,6.10
2023-05-02T09:51:31.014Z,6.30
2023-05-02T09:52:30.983Z,5.40
2023-05-02T09:53:30.957Z,5.80
2023-05-02T09:54:30.941Z,6.20
2023-05-02T09:55:30.931Z,6.90
2023-05-02T09:56:30.893Z,6.60
2023-05-02T09:57:30.871Z,6.60
2023-05-02T09:58:30.848Z,6.20
2023-05-02T09:59:30.843Z,6.30
2023-05-02T10:00:30.800Z,6.40
2023-05-02T10:01:30.831Z,6.30
2023-05-02T10:02:30.787Z,6.30
2023-05-02T10:03:30.726Z,5.90
2023-05-02T10:04:30.793Z,5.90
2023-05-02T10:05:30.679Z,6.10
2023-05-02T10:06:30.689Z,5.60
2023-05-02T10:07:30.634Z,5.70
2023-05-02T10:08:30.610Z,5.40
2023-05-02T10:09:30.588Z,5.70
2023-05-02T10:10:30.564Z,6.00
2023-05-02T10:11:30.552Z,5.70
2023-05-02T10:12:30.528Z,5.50
2023-05-02T10:13:30.494Z,5.70
2023-05-02T10:14:30.474Z,5.60
2023-05-02T10:15:30.622Z,5.50
2023-05-02T10:16:30.469Z,5.20
2023-05-02T10:17:30.447Z,5.50
2023-05-02T10:18:30.479Z,5.50
2023-05-02T10:19:30.353Z,5.70
2023-05-02T10:20:30.334Z,6.50
2023-05-02T10:21:30.313Z,5.80
2023-05-02T10:22:30.301Z,5.60
2023-05-02T10:23:30.293Z,5.60
2023-05-02T10:24:30.246Z,5.60
2023-05-02T10:25:30.225Z,5.60
2023-05-02T10:26:30.199Z,5.50
2023-05-02T10:27:30.176Z,4.70
2023-05-02T10:28:30.172Z,4.50
2023-05-02T10:29:30.137Z,4.30
2023-05-02T10:30:30.106Z,4.80
2023-05-02T10:31:30.119Z,5.40
2023-05-02T10:32:30.176Z,5.10
2023-05-02T10:33:30.045Z,5.60
2023-05-02T10:34:30.035Z,5.20
2023-05-02T10:35:29.993Z,5.50
2023-05-02T10:36:29.968Z,5.10
2023-05-02T10:37:29.948Z,4.60
2023-05-02T10:38:29.928Z,4.40
2023-05-02T10:39:29.906Z,4.30
2023-05-02T10:40:29.880Z,4.20
2023-05-02T10:41:29.852Z,4.10
2023-05-02T10:42:29.845Z,4.50
2023-05-02T10:43:29.804Z,4.80
2023-05-02T10:44:29.782Z,5.10
2023-05-02T10:45:29.756Z,4.50
2023-05-02T10:46:29.769Z,4.60
2023-05-02T10:47:29.757Z,4.50
2023-05-02T10:48:29.688Z,4.50
2023-05-02T10:49:29.700Z,4.60
2023-05-02T10:50:29.662Z,4.00
2023-05-02T10:51:29.635Z,4.40
2023-05-02T10:52:29.601Z,4.60
2023-05-02T10:53:29.573Z,5.00
2023-05-02T10:54:29.559Z,4.90
2023-05-02T10:55:29.524Z,4.80
2023-05-02T10:56:29.514Z,4.60
2023-05-02T10:57:29.477Z,4.70
2023-05-02T10:58:29.451Z,4.40
2023-05-02T10:59:29.427Z,4.20
2023-05-02T11:00:29.534Z,3.80
2023-05-02T11:01:29.741Z,4.10
2023-05-02T11:02:29.438Z,4.00
2023-05-02T11:03:29.416Z,4.30
2023-05-02T11:04:29.317Z,3.60
2023-05-02T11:05:29.288Z,3.70
2023-05-02T11:06:29.335Z,3.80
2023-05-02T11:07:29.267Z,3.90
2023-05-02T11:08:29.220Z,4.00
2023-05-02T11:09:29.195Z,4.20
2023-05-02T11:10:29.202Z,4.00
2023-05-02T11:11:29.150Z,4.30
2023-05-02T11:12:29.130Z,3.90
2023-05-02T11:13:29.112Z,4.40
2023-05-02T11:14:29.125Z,4.00
2023-05-02T11:15:29.077Z,4.00
2023-05-02T11:16:29.081Z,4.20
2023-05-02T11:17:29.020Z,4.10
2023-05-02T11:18:28.985Z,4.20
2023-05-02T11:19:31.000Z,4.20
2023-05-02T11:20:28.945Z,4.20
2023-05-02T11:21:29.014Z,4.00
2023-05-02T11:22:28.915Z,4.20
2023-05-02T11:23:28.878Z,4.40
2023-05-02T11:24:28.846Z,4.00
2023-05-02T11:26:28.801Z,4.40
2023-05-02T11:27:28.775Z,4.40
2023-05-02T11:28:28.758Z,4.10
2023-05-02T11:29:28.728Z,4.40
2023-05-02T11:30:28.712Z,3.90
2023-05-02T11:31:28.734Z,4.20
2023-05-02T11:32:28.732Z,4.30
2023-05-02T11:33:28.641Z,4.10
2023-05-02T11:34:28.614Z,4.40
2023-05-02T11:35:28.587Z,4.10
2023-05-02T11:36:28.567Z,4.50
2023-05-02T11:37:28.797Z,4.30
2023-05-02T11:38:28.537Z,4.40
2023-05-02T11:39:28.497Z,4.30
2023-05-02T11:40:28.528Z,4.50
2023-05-02T11:41:28.446Z,4.70
2023-05-02T11:42:28.434Z,4.10
2023-05-02T11:43:30.704Z,4.40
2023-05-02T11:44:28.377Z,4.30
2023-05-02T11:45:28.350Z,4.20
2023-05-02T11:46:28.394Z,4.00
2023-05-02T11:47:28.320Z,4.10
2023-05-02T11:48:28.279Z,4.20
2023-05-02T11:49:28.260Z,4.10
2023-05-02T11:50:28.234Z,3.80
2023-05-02T11:51:28.212Z,4.10
2023-05-02T11:52:28.186Z,3.80
2023-05-02T11:53:28.165Z,3.90
2023-05-02T11:54:28.220Z,3.90
2023-05-02T11:55:28.122Z,4.40
2023-05-02T11:56:28.093Z,4.10
2023-05-02T11:57:28.068Z,4.20
2023-05-02T11:58:28.046Z,3.90
2023-05-02T11:59:28.028Z,4.20
2023-05-02T12:00:28.020Z,4.10
2023-05-02T12:01:27.987Z,3.60
2023-05-02T12:02:28.028Z,3.70
2023-05-02T12:03:28.156Z,4.10
2023-05-02T12:04:27.912Z,3.70
2023-05-02T12:05:27.953Z,4.20
2023-05-02T12:06:27.901Z,4.00
2023-05-02T12:07:27.855Z,3.60
2023-05-02T12:08:27.831Z,3.60
2023-05-02T12:09:27.810Z,3.50
2023-05-02T12:10:27.797Z,4.00
2023-05-02T12:11:27.756Z,3.90
2023-05-02T12:12:27.733Z,3.60
2023-05-02T12:13:27.716Z,3.50
2023-05-02T12:14:27.693Z,3.80
2023-05-02T12:15:27.669Z,3.60
2023-05-02T12:16:27.674Z,3.30
2023-05-02T12:17:27.646Z,3.20
2023-05-02T12:18:27.603Z,3.30
2023-05-02T12:19:27.583Z,3.50
2023-05-02T12:20:27.562Z,3.30
2023-05-02T12:21:27.542Z,3.10
2023-05-02T12:22:27.517Z,2.80
2023-05-02T12:23:27.501Z,3.40
2023-05-02T12:24:27.482Z,3.40
2023-05-02T12:25:27.455Z,3.60
2023-05-02T12:26:27.499Z,3.20
2023-05-02T12:27:27.415Z,3.40
2023-05-02T12:28:27.389Z,3.50
2023-05-02T12:29:27.367Z,3.20
2023-05-02T12:30:27.358Z,3.70
2023-05-02T12:31:27.441Z,3.30
2023-05-02T12:32:27.609Z,3.30
2023-05-02T12:33:27.279Z,3.70
2023-05-02T12:34:27.264Z,3.40
2023-05-02T12:35:27.236Z,3.60
2023-05-02T12:36:27.209Z,3.30
2023-05-02T12:37:27.217Z,3.50
2023-05-02T12:38:27.182Z,3.60
2023-05-02T12:39:27.141Z,3.50
2023-05-02T12:40:27.116Z,3.70
2023-05-02T12:41:27.096Z,3.50
2023-05-02T12:42:27.197Z,3.40
2023-05-02T12:43:27.050Z,3.50
2023-05-02T12:44:27.025Z,3.30
2023-05-02T12:45:27.004Z,3.70
2023-05-02T12:46:26.982Z,3.40
2023-05-02T12:47:27.059Z,3.70
2023-05-02T12:48:26.948Z,3.60
2023-05-02T12:49:26.912Z,3.70
2023-05-02T12:50:26.884Z,3.80
2023-05-02T12:51:26.873Z,4.00
2023-05-02T12:52:26.833Z,3.80
2023-05-02T12:53:26.806Z,3.70
2023-05-02T12:54:26.785Z,3.90
2023-05-02T12:55:26.758Z,4.10
2023-05-02T12:56:26.733Z,3.80
2023-05-02T12:57:26.708Z,3.60
2023-05-02T12:58:26.708Z,4.00
2023-05-02T12:59:26.667Z,4.10
2023-05-02T13:00:26.631Z,4.60
2023-05-02T13:01:26.611Z,4.50
2023-05-02T13:02:26.625Z,4.60
2023-05-02T13:03:26.620Z,4.90
2023-05-02T13:04:26.530Z,5.00
2023-05-02T13:05:26.508Z,4.90
2023-05-02T13:06:26.526Z,4.90
2023-05-02T13:07:26.456Z,5.00
2023-05-02T13:08:26.432Z,5.70
2023-05-02T13:09:26.409Z,4.40
2023-05-02T13:10:26.380Z,4.60
2023-05-02T13:11:26.353Z,4.80
2023-05-02T13:12:26.329Z,4.70
2023-05-02T13:13:26.301Z,4.70
2023-05-02T13:14:26.298Z,4.30
2023-05-02T13:15:26.291Z,3.90
2023-05-02T13:16:26.295Z,4.00
2023-05-02T13:17:26.284Z,4.40
2023-05-02T13:18:26.184Z,3.50
2023-05-02T13:19:26.150Z,3.30